createdAt,value
2024-05-09T06:04:06.319Z,0
2024-05-09T06:05:06.705Z,88.97
2024-05-09T06:06:06.756Z,88.88
2024-05-09T06:07:06.506Z,0
2024-05-09T06:08:06.624Z,88.85
2024-05-09T06:09:06.644Z,88.77
2024-05-09T06:10:21.434Z,88.71
2024-05-09T06:11:06.715Z,88.75
2024-05-09T06:12:06.915Z,88.71
2024-05-09T06:13:06.856Z,88.68
2024-05-09T06:14:06.757Z,88.64
2024-05-09T06:15:06.892Z,88.71
2024-05-09T06:16:06.561Z,88.73
2024-05-09T06:17:06.378Z,88.98
2024-05-09T06:18:06.912Z,88.76
2024-05-09T06:19:06.358Z,88.64
2024-05-09T06:20:20.248Z,88.53
2024-05-09T06:21:06.023Z,88.51
2024-05-09T06:22:05.801Z,88.44
2024-05-09T06:23:07.242Z,89.08
2024-05-09T06:24:08.259Z,89.87
2024-05-09T06:25:06.218Z,89.80
2024-05-09T06:26:05.923Z,89.97
2024-05-09T06:27:05.864Z,89.95
2024-05-09T06:28:06.956Z,89.56
2024-05-09T06:29:05.743Z,89.26
2024-05-09T06:30:24.840Z,89.15
2024-05-09T06:31:06.472Z,90.16
2024-05-09T06:32:06.607Z,90.51
2024-05-09T06:33:07.472Z,89.83
2024-05-09T06:34:06.789Z,90.59
2024-05-09T06:35:07.068Z,70
2024-05-09T06:43:06.358Z,90.44
2024-05-09T06:44:06.451Z,90.42
2024-05-09T06:45:06.175Z,90.66
2024-05-09T06:46:06.006Z,90.86
2024-05-09T06:47:06.139Z,90.49
2024-05-09T06:48:06.789Z,90.35
2024-05-09T06:49:06.495Z,90.36
2024-05-09T06:50:19.539Z,90.41
2024-05-09T06:51:06.324Z,90.31
2024-05-09T06:52:06.063Z,90.31
2024-05-09T06:53:06.264Z,0
2024-05-09T06:54:05.992Z,0
2024-05-09T06:55:06.064Z,0
2024-05-09T06:56:05.901Z,0
2024-05-09T06:57:06.853Z,0
2024-05-09T06:58:05.928Z,0
2024-05-09T06:59:06.975Z,0
2024-05-09T07:00:15.438Z,0
2024-05-09T07:01:06.643Z,0
2024-05-09T07:02:06.689Z,0
2024-05-09T07:03:08.078Z,91.02
2024-05-09T07:04:07.156Z,90.77
2024-05-09T07:05:06.971Z,90.51
2024-05-09T07:06:06.644Z,90.51
2024-05-09T07:07:06.937Z,90.40
2024-05-09T07:08:07.566Z,90.38
2024-05-09T07:09:06.896Z,90.64
2024-05-09T07:10:12.268Z,90.66
2024-05-09T07:11:06.750Z,92.40
2024-05-09T15:48:06.376Z,0
